createdAt,value
2018-05-12T00:00:19.776Z,0.00
2018-05-12T00:01:19.767Z,0.00
2018-05-12T00:02:19.758Z,0.00
2018-05-12T00:03:19.749Z,0.00
2018-05-12T00:04:19.749Z,0.00
2018-05-12T00:05:19.740Z,0.00
2018-05-12T00:06:19.734Z,0.00
2018-05-12T00:07:19.726Z,0.00
2018-05-12T00:08:19.715Z,0.00
2018-05-12T00:09:19.707Z,0.00
2018-05-12T00:10:19.697Z,0.00
2018-05-12T00:11:19.696Z,0.00
2018-05-12T00:12:19.685Z,0.00
2018-05-12T00:13:19.679Z,0.00
2018-05-12T00:14:19.668Z,0.00
2018-05-12T00:15:19.667Z,0.00
2018-05-12T00:16:19.657Z,0.00
2018-05-12T00:17:19.651Z,0.00
2018-05-12T00:18:19.642Z,0.00
2018-05-12T00:19:19.633Z,0.00
2018-05-12T00:20:19.626Z,0.00
2018-05-12T00:21:19.623Z,0.00
2018-05-12T00:22:19.612Z,0.00
2018-05-12T00:23:19.606Z,0.00
2018-05-12T00:24:19.600Z,0.00
2018-05-12T00:25:19.591Z,0.00
2018-05-12T00:26:19.589Z,0.00
2018-05-12T00:27:19.573Z,0.00
2018-05-12T00:28:19.574Z,0.00
2018-05-12T00:29:19.565Z,0.00
2018-05-12T00:30:19.565Z,0.00
2018-05-12T00:31:19.552Z,0.00
2018-05-12T00:32:19.538Z,0.00
2018-05-12T00:33:19.533Z,0.00
2018-05-12T00:34:19.526Z,0.00
2018-05-12T00:35:19.516Z,0.00
2018-05-12T00:36:19.511Z,0.00
2018-05-12T00:37:19.504Z,0.00
2018-05-12T00:38:19.497Z,0.00
2018-05-12T00:39:19.489Z,0.00
2018-05-12T00:40:19.483Z,0.00
2018-05-12T00:41:19.474Z,0.00
2018-05-12T00:42:19.467Z,0.00
2018-05-12T00:43:19.463Z,0.00
2018-05-12T00:44:19.449Z,0.00
2018-05-12T00:45:19.442Z,0.00
2018-05-12T00:46:19.435Z,0.00
2018-05-12T00:47:19.432Z,0.00
2018-05-12T00:48:19.424Z,0.00
2018-05-12T00:49:19.416Z,0.00
2018-05-12T00:50:19.405Z,0.00
2018-05-12T00:51:19.403Z,0.00
2018-05-12T00:52:19.396Z,0.00
2018-05-12T00:53:19.386Z,0.00
2018-05-12T00:54:19.375Z,0.00
2018-05-12T00:55:19.371Z,0.00
2018-05-12T00:56:19.365Z,0.00
2018-05-12T00:57:19.361Z,0.00
2018-05-12T00:58:19.345Z,0.00
2018-05-12T00:59:19.341Z,0.00
2018-05-12T01:00:19.330Z,0.00
2018-05-12T01:01:19.322Z,0.00
2018-05-12T01:02:19.317Z,0.00
2018-05-12T01:03:19.309Z,0.00
2018-05-12T01:04:19.305Z,0.00
2018-05-12T01:05:19.295Z,0.00
2018-05-12T01:06:19.284Z,0.00
2018-05-12T01:07:19.280Z,0.00
2018-05-12T01:08:19.268Z,0.00
2018-05-12T01:09:19.265Z,0.00
2018-05-12T01:10:19.257Z,0.00
2018-05-12T01:11:19.250Z,0.00
2018-05-12T01:12:19.242Z,0.00
2018-05-12T01:13:19.236Z,0.00
2018-05-12T01:14:19.223Z,0.00
2018-05-12T01:15:19.216Z,0.00
2018-05-12T01:16:19.210Z,0.00
2018-05-12T01:17:19.202Z,0.00
2018-05-12T01:18:19.192Z,0.00
2018-05-12T01:19:19.190Z,0.00
2018-05-12T01:20:19.190Z,0.00
2018-05-12T01:21:19.172Z,0.00
2018-05-12T01:22:19.167Z,0.00
2018-05-12T01:23:19.156Z,0.00
2018-05-12T01:24:19.146Z,0.00
2018-05-12T01:25:19.142Z,0.00
2018-05-12T01:26:19.135Z,0.00
2018-05-12T01:27:19.125Z,0.00
2018-05-12T01:28:19.117Z,0.00
2018-05-12T01:29:19.110Z,0.00
2018-05-12T01:30:19.104Z,0.00
2018-05-12T01:31:19.091Z,0.00
2018-05-12T01:32:19.084Z,0.00
2018-05-12T01:33:19.082Z,0.00
2018-05-12T01:34:19.069Z,0.00
2018-05-12T01:35:19.062Z,0.00
2018-05-12T01:36:19.054Z,0.00
2018-05-12T01:37:19.048Z,0.00
2018-05-12T01:38:19.041Z,0.00
2018-05-12T01:39:19.029Z,0.00
2018-05-12T01:40:19.025Z,0.00
2018-05-12T01:41:19.013Z,0.00
2018-05-12T01:42:19.005Z,0.00
2018-05-12T01:43:18.995Z,0.00
2018-05-12T01:44:18.990Z,0.00
2018-05-12T01:45:18.987Z,0.00
2018-05-12T01:46:18.974Z,0.00
2018-05-12T01:47:18.965Z,0.00
2018-05-12T01:48:18.958Z,0.00
2018-05-12T01:49:18.953Z,0.00
2018-05-12T01:50:18.954Z,0.00
2018-05-12T01:51:18.934Z,0.00
2018-05-12T01:52:18.924Z,0.00
2018-05-12T01:53:18.920Z,0.00
2018-05-12T01:54:18.908Z,0.00
2018-05-12T01:55:18.907Z,0.00
2018-05-12T01:56:18.893Z,0.00
2018-05-12T01:57:18.885Z,0.00
2018-05-12T01:58:18.877Z,0.00
2018-05-12T01:59:18.869Z,0.00
2018-05-12T02:00:18.860Z,0.00
2018-05-12T02:01:18.854Z,0.00
2018-05-12T02:02:18.898Z,0.00
2018-05-12T02:03:18.836Z,0.00
2018-05-12T02:04:18.827Z,0.00
2018-05-12T02:05:18.823Z,0.00
2018-05-12T02:06:18.810Z,0.00
2018-05-12T02:07:18.806Z,0.00
2018-05-12T02:08:18.795Z,0.00
2018-05-12T02:09:18.789Z,0.00
2018-05-12T02:10:18.779Z,0.00
2018-05-12T02:11:18.768Z,0.00
2018-05-12T02:12:18.761Z,0.00
2018-05-12T02:13:18.759Z,0.00
2018-05-12T02:14:18.749Z,0.00
2018-05-12T02:15:18.738Z,0.00
2018-05-12T02:16:18.734Z,0.00
2018-05-12T02:17:18.722Z,0.00
2018-05-12T02:18:18.712Z,0.00
2018-05-12T02:19:18.711Z,0.00
2018-05-12T02:20:18.703Z,0.00
2018-05-12T02:21:18.688Z,0.00
2018-05-12T02:22:18.682Z,0.00
2018-05-12T02:23:18.674Z,0.00
2018-05-12T02:24:18.667Z,0.00
2018-05-12T02:25:18.658Z,0.00
2018-05-12T02:26:18.644Z,0.00
2018-05-12T02:27:18.641Z,0.00
2018-05-12T02:28:18.634Z,0.00
2018-05-12T02:29:18.622Z,0.00
2018-05-12T02:30:18.716Z,0.00
2018-05-12T02:31:18.608Z,0.00
2018-05-12T02:32:18.599Z,0.00
2018-05-12T02:33:18.595Z,0.00
2018-05-12T02:34:18.580Z,0.00
2018-05-12T02:35:18.575Z,0.00
2018-05-12T02:36:18.566Z,0.00
2018-05-12T02:37:18.555Z,0.00
2018-05-12T02:38:18.547Z,0.00
2018-05-12T02:39:18.538Z,0.00
2018-05-12T02:40:18.533Z,0.00
2018-05-12T02:41:18.523Z,0.00
2018-05-12T02:42:18.534Z,0.00
2018-05-12T02:43:18.506Z,0.00
2018-05-12T02:44:18.493Z,0.00
2018-05-12T02:45:18.493Z,0.00
2018-05-12T02:46:18.481Z,0.00
2018-05-12T02:47:18.471Z,0.00
2018-05-12T02:48:18.462Z,0.00
2018-05-12T02:49:18.453Z,0.00
2018-05-12T02:50:18.449Z,0.00
2018-05-12T02:51:18.440Z,0.00
2018-05-12T02:52:18.429Z,0.00
2018-05-12T02:53:18.429Z,0.00
2018-05-12T02:54:18.411Z,0.00
2018-05-12T02:55:18.404Z,0.00
2018-05-12T02:56:18.395Z,0.00
2018-05-12T02:57:18.390Z,0.00
2018-05-12T02:58:18.375Z,0.00
2018-05-12T02:59:18.366Z,0.00
2018-05-12T03:00:18.359Z,0.00
2018-05-12T03:01:18.352Z,0.00
2018-05-12T03:02:18.340Z,0.00
2018-05-12T03:03:18.329Z,0.00
2018-05-12T03:04:18.326Z,0.00
2018-05-12T03:05:18.315Z,0.00
2018-05-12T03:06:18.304Z,0.00
2018-05-12T03:07:18.296Z,0.00
2018-05-12T03:08:18.426Z,0.00
2018-05-12T03:09:18.282Z,0.00
2018-05-12T03:10:18.271Z,0.00
2018-05-12T03:11:18.264Z,0.00
2018-05-12T03:12:18.254Z,0.00
2018-05-12T03:13:18.248Z,0.00
2018-05-12T03:14:18.236Z,0.00
2018-05-12T03:15:18.227Z,0.00
2018-05-12T03:16:18.219Z,0.00
2018-05-12T03:17:18.211Z,0.00
2018-05-12T03:18:18.201Z,0.00
2018-05-12T03:19:18.199Z,0.00
2018-05-12T03:20:18.183Z,0.00
2018-05-12T03:21:18.176Z,0.00
2018-05-12T03:22:18.172Z,0.00
2018-05-12T03:23:18.160Z,0.00
2018-05-12T03:24:18.152Z,0.00
2018-05-12T03:25:18.142Z,0.00
2018-05-12T03:26:18.129Z,0.00
2018-05-12T03:27:18.120Z,0.00
2018-05-12T03:28:18.116Z,0.00
2018-05-12T03:29:18.106Z,0.00
2018-05-12T03:30:18.096Z,0.00
2018-05-12T03:31:18.092Z,0.00
2018-05-12T03:32:18.079Z,0.00
2018-05-12T03:33:18.071Z,0.00
2018-05-12T03:34:18.060Z,0.00
2018-05-12T03:35:18.055Z,0.00
2018-05-12T03:36:18.043Z,0.00
2018-05-12T03:37:18.038Z,0.00
2018-05-12T03:38:18.023Z,0.00
2018-05-12T03:39:18.016Z,0.00
2018-05-12T03:40:18.006Z,0.00
2018-05-12T03:41:17.998Z,0.00
2018-05-12T03:42:17.987Z,0.00
2018-05-12T03:43:17.981Z,0.00
2018-05-12T03:44:17.971Z,0.00
2018-05-12T03:45:17.962Z,0.00
2018-05-12T03:46:17.952Z,0.00
2018-05-12T03:47:17.941Z,0.00
2018-05-12T03:48:17.935Z,0.00
2018-05-12T03:49:17.925Z,0.00
2018-05-12T03:50:17.915Z,0.00
2018-05-12T03:51:17.907Z,0.00
2018-05-12T03:52:17.902Z,0.00
2018-05-12T03:53:17.892Z,0.00
2018-05-12T03:54:17.880Z,0.00
2018-05-12T03:55:17.870Z,0.00
2018-05-12T03:56:17.865Z,0.00
2018-05-12T03:57:17.858Z,5.63
2018-05-12T03:58:17.845Z,5.63
2018-05-12T03:59:17.836Z,5.63
2018-05-12T04:00:17.826Z,5.63
2018-05-12T04:01:17.821Z,5.63
2018-05-12T04:02:17.812Z,5.63
2018-05-12T04:03:17.801Z,5.63
2018-05-12T04:04:17.795Z,5.63
2018-05-12T04:05:17.786Z,5.63
2018-05-12T04:06:17.776Z,5.63
2018-05-12T04:07:17.764Z,5.63
2018-05-12T04:08:17.758Z,5.63
2018-05-12T04:09:17.746Z,11.25
2018-05-12T04:10:17.741Z,11.25
2018-05-12T04:11:17.732Z,11.25
2018-05-12T04:12:17.724Z,11.25
2018-05-12T04:13:17.712Z,11.25
2018-05-12T04:14:17.704Z,11.25
2018-05-12T04:15:17.697Z,11.25
2018-05-12T04:16:17.685Z,11.25
2018-05-12T04:17:17.680Z,11.25
2018-05-12T04:18:17.669Z,11.25
2018-05-12T04:19:17.661Z,11.25
2018-05-12T04:20:17.650Z,11.25
2018-05-12T04:21:17.642Z,16.88
2018-05-12T04:22:17.639Z,16.88
2018-05-12T04:23:17.625Z,16.88
2018-05-12T04:24:17.616Z,16.88
2018-05-12T04:25:17.605Z,16.88
2018-05-12T04:26:17.600Z,16.88
2018-05-12T04:27:17.590Z,22.50
2018-05-12T04:28:17.582Z,22.50
2018-05-12T04:29:17.571Z,22.50
2018-05-12T04:30:17.565Z,22.50
2018-05-12T04:31:17.557Z,22.50
2018-05-12T04:32:17.544Z,28.13
2018-05-12T04:33:17.537Z,28.13
2018-05-12T04:34:17.526Z,33.75
2018-05-12T04:35:17.520Z,50.63
2018-05-12T04:36:17.510Z,39.38
2018-05-12T04:37:17.500Z,45.00
2018-05-12T04:38:17.492Z,78.75
2018-05-12T04:39:17.483Z,213.75
2018-05-12T04:40:17.475Z,298.13
2018-05-12T04:41:17.467Z,230.63
2018-05-12T04:42:17.458Z,146.25
2018-05-12T04:43:17.520Z,253.13
2018-05-12T04:44:17.439Z,348.75
2018-05-12T04:45:17.431Z,371.25
2018-05-12T04:46:17.424Z,388.13
2018-05-12T04:47:17.416Z,388.13
2018-05-12T04:48:17.412Z,365.63
2018-05-12T04:49:17.401Z,371.25
2018-05-12T04:50:17.394Z,489.38
2018-05-12T04:51:17.386Z,517.50
2018-05-12T04:52:17.388Z,461.25
2018-05-12T04:53:17.374Z,461.25
2018-05-12T04:54:17.449Z,495.00
2018-05-12T04:55:17.362Z,320.63
2018-05-12T04:56:17.357Z,123.75
2018-05-12T04:57:17.352Z,112.50
2018-05-12T04:58:17.346Z,112.50
2018-05-12T04:59:17.343Z,112.50
2018-05-12T05:00:17.337Z,118.13
2018-05-12T05:01:17.329Z,112.50
2018-05-12T05:02:17.328Z,112.50
2018-05-12T05:03:17.321Z,112.50
2018-05-12T05:04:17.322Z,112.50
2018-05-12T05:05:17.316Z,118.13
2018-05-12T05:06:17.309Z,118.13
2018-05-12T05:07:17.306Z,118.13
2018-05-12T05:08:17.396Z,118.13
2018-05-12T05:09:17.295Z,118.13
2018-05-12T05:10:17.291Z,118.13
2018-05-12T05:11:17.286Z,123.75
2018-05-12T05:12:17.282Z,123.75
2018-05-12T05:13:17.278Z,123.75
2018-05-12T05:14:17.272Z,123.75
2018-05-12T05:15:17.360Z,123.75
2018-05-12T05:16:17.266Z,123.75
2018-05-12T05:17:17.260Z,123.75
2018-05-12T05:18:17.259Z,123.75
2018-05-12T05:19:17.250Z,123.75
2018-05-12T05:20:17.247Z,123.75
2018-05-12T05:21:17.281Z,129.38
2018-05-12T05:22:17.236Z,129.38
2018-05-12T05:23:17.231Z,129.38
2018-05-12T05:24:17.229Z,135.00
2018-05-12T05:25:17.229Z,135.00
2018-05-12T05:26:17.217Z,135.00
2018-05-12T05:27:17.212Z,135.00
2018-05-12T05:28:17.207Z,135.00
2018-05-12T05:29:17.203Z,135.00
2018-05-12T05:30:17.193Z,135.00
2018-05-12T05:31:17.189Z,135.00
2018-05-12T05:32:17.187Z,140.63
2018-05-12T05:33:17.184Z,140.63
2018-05-12T05:34:17.176Z,140.63
2018-05-12T05:35:17.186Z,140.63
2018-05-12T05:36:17.165Z,140.63
2018-05-12T05:37:17.159Z,140.63
2018-05-12T05:38:17.152Z,140.63
2018-05-12T05:39:17.151Z,140.63
2018-05-12T05:40:17.145Z,140.63
2018-05-12T05:41:17.140Z,146.25
2018-05-12T05:42:17.133Z,146.25
2018-05-12T05:43:17.131Z,146.25
2018-05-12T05:44:17.124Z,146.25
2018-05-12T05:45:17.119Z,146.25
2018-05-12T05:46:17.113Z,146.25
2018-05-12T05:47:17.109Z,146.25
2018-05-12T05:48:17.108Z,146.25
2018-05-12T05:49:17.132Z,146.25
2018-05-12T05:50:17.168Z,146.25
2018-05-12T05:51:17.087Z,146.25
2018-05-12T05:52:17.082Z,146.25
2018-05-12T05:53:17.076Z,146.25
2018-05-12T05:54:17.073Z,146.25
2018-05-12T05:55:17.074Z,151.88
2018-05-12T05:56:17.063Z,151.88
2018-05-12T05:57:17.057Z,151.88
2018-05-12T05:58:17.065Z,151.88
2018-05-12T05:59:17.045Z,151.88
2018-05-12T06:00:17.042Z,151.88
2018-05-12T06:01:17.041Z,151.88
2018-05-12T06:02:17.032Z,151.88
2018-05-12T06:03:17.031Z,151.88
2018-05-12T06:04:17.019Z,151.88
2018-05-12T06:05:17.019Z,151.88
2018-05-12T06:06:17.013Z,151.88
2018-05-12T06:07:17.007Z,151.88
2018-05-12T06:08:17.001Z,151.88
2018-05-12T06:09:16.997Z,146.25
2018-05-12T06:10:16.995Z,146.25
2018-05-12T06:11:16.988Z,151.88
2018-05-12T06:12:16.980Z,151.88
2018-05-12T06:13:16.979Z,151.88
2018-05-12T06:14:16.972Z,151.88
2018-05-12T06:15:16.967Z,151.88
2018-05-12T06:16:16.963Z,151.88
2018-05-12T06:17:16.958Z,151.88
2018-05-12T06:18:16.956Z,157.50
2018-05-12T06:19:16.948Z,157.50
2018-05-12T06:20:16.946Z,157.50
2018-05-12T06:21:16.940Z,157.50
2018-05-12T06:29:10.201Z,157.50
2018-05-12T06:30:10.195Z,163.13
2018-05-12T06:31:10.185Z,157.50
2018-05-12T06:32:10.184Z,157.50
2018-05-12T06:33:10.178Z,157.50
2018-05-12T06:34:10.174Z,157.50
2018-05-12T06:35:10.173Z,157.50
2018-05-12T06:36:10.167Z,157.50
2018-05-12T06:37:10.163Z,157.50
2018-05-12T06:38:10.224Z,163.13
2018-05-12T06:39:10.154Z,163.13
2018-05-12T06:40:10.146Z,163.13
2018-05-12T06:41:10.146Z,163.13
2018-05-12T06:42:10.138Z,157.50
2018-05-12T06:43:10.134Z,157.50
2018-05-12T06:44:10.135Z,157.50
2018-05-12T06:45:10.126Z,157.50
2018-05-12T06:46:10.123Z,157.50
2018-05-12T06:47:10.117Z,157.50
2018-05-12T06:48:10.114Z,157.50
2018-05-12T06:49:10.110Z,157.50
2018-05-12T06:50:10.113Z,157.50
2018-05-12T06:51:10.104Z,157.50
2018-05-12T06:52:10.099Z,157.50
2018-05-12T06:53:10.096Z,157.50
2018-05-12T06:54:10.094Z,151.88
2018-05-12T06:55:10.088Z,151.88
2018-05-12T06:56:10.084Z,151.88
2018-05-12T06:57:10.078Z,151.88
2018-05-12T06:58:10.078Z,151.88
2018-05-12T06:59:10.072Z,151.88
2018-05-12T07:00:10.070Z,151.88
2018-05-12T07:01:10.064Z,151.88
2018-05-12T07:02:10.060Z,151.88
2018-05-12T07:03:10.058Z,146.25
2018-05-12T07:04:10.057Z,146.25
2018-05-12T07:05:10.051Z,146.25
2018-05-12T07:06:10.047Z,146.25
2018-05-12T07:07:10.044Z,146.25
2018-05-12T07:08:10.046Z,146.25
2018-05-12T07:09:10.035Z,146.25
2018-05-12T07:10:10.035Z,146.25
2018-05-12T07:11:10.030Z,146.25
2018-05-12T07:12:10.028Z,146.25
2018-05-12T07:13:10.025Z,146.25
2018-05-12T07:14:10.025Z,146.25
2018-05-12T07:15:10.019Z,146.25
2018-05-12T07:16:10.016Z,140.63
2018-05-12T07:17:10.010Z,140.63
2018-05-12T07:18:10.007Z,140.63
2018-05-12T07:19:10.006Z,140.63
2018-05-12T07:20:10.007Z,140.63
2018-05-12T07:21:09.997Z,146.25
2018-05-12T07:22:09.998Z,140.63
2018-05-12T07:23:09.994Z,140.63
2018-05-12T07:24:09.990Z,140.63
2018-05-12T07:25:09.987Z,140.63
2018-05-12T07:26:09.990Z,140.63
2018-05-12T07:27:09.982Z,140.63
2018-05-12T07:28:09.976Z,140.63
2018-05-12T07:29:09.975Z,140.63
2018-05-12T07:30:09.970Z,140.63
2018-05-12T07:31:09.969Z,135.00
2018-05-12T07:32:09.969Z,135.00
2018-05-12T07:33:09.965Z,135.00
2018-05-12T07:34:09.964Z,135.00
2018-05-12T07:35:09.959Z,135.00
2018-05-12T07:36:09.956Z,135.00
2018-05-12T07:37:09.958Z,135.00
2018-05-12T07:38:09.949Z,135.00
2018-05-12T07:39:10.031Z,135.00
2018-05-12T07:40:09.948Z,135.00
2018-05-12T07:41:09.940Z,135.00
2018-05-12T07:42:09.938Z,135.00
2018-05-12T07:43:09.940Z,135.00
2018-05-12T07:44:09.933Z,135.00
2018-05-12T07:45:09.936Z,135.00
2018-05-12T07:46:09.932Z,135.00
2018-05-12T07:47:09.930Z,135.00
2018-05-12T07:48:09.926Z,135.00
2018-05-12T07:49:09.922Z,135.00
2018-05-12T07:50:09.923Z,135.00
2018-05-12T07:51:09.918Z,135.00
2018-05-12T07:52:09.918Z,135.00
2018-05-12T07:53:09.923Z,135.00
2018-05-12T07:54:09.913Z,140.63
2018-05-12T07:55:09.912Z,135.00
2018-05-12T07:56:09.910Z,135.00
2018-05-12T07:57:09.904Z,129.38
2018-05-12T07:58:09.906Z,129.38
2018-05-12T07:59:09.899Z,129.38
2018-05-12T08:00:09.902Z,123.75
2018-05-12T08:01:09.900Z,129.38
2018-05-12T08:02:09.895Z,129.38
2018-05-12T08:03:09.895Z,129.38
2018-05-12T08:04:09.890Z,129.38
2018-05-12T08:05:09.887Z,129.38
2018-05-12T08:06:09.888Z,129.38
2018-05-12T08:07:09.885Z,129.38
2018-05-12T08:08:09.881Z,129.38
2018-05-12T08:09:09.882Z,129.38
2018-05-12T08:10:09.881Z,129.38
2018-05-12T08:11:09.877Z,129.38
2018-05-12T08:12:09.878Z,129.38
2018-05-12T08:13:09.871Z,129.38
2018-05-12T08:14:09.869Z,129.38
2018-05-12T08:15:09.868Z,129.38
2018-05-12T08:16:09.865Z,129.38
2018-05-12T08:17:09.867Z,129.38
2018-05-12T08:18:09.863Z,129.38
2018-05-12T08:19:09.858Z,129.38
2018-05-12T08:20:09.856Z,129.38
2018-05-12T08:21:09.856Z,129.38
2018-05-12T08:22:09.856Z,129.38
2018-05-12T08:23:09.852Z,123.75
2018-05-12T08:24:09.851Z,123.75
2018-05-12T08:25:09.850Z,123.75
2018-05-12T08:26:09.895Z,123.75
2018-05-12T08:27:09.846Z,123.75
2018-05-12T08:28:09.843Z,123.75
2018-05-12T08:29:09.845Z,123.75
2018-05-12T08:30:09.839Z,123.75
2018-05-12T08:31:09.843Z,123.75
2018-05-12T08:32:09.839Z,123.75
2018-05-12T08:33:09.833Z,123.75
2018-05-12T08:34:09.836Z,123.75
2018-05-12T08:35:09.836Z,123.75
2018-05-12T08:36:09.832Z,123.75
2018-05-12T08:37:09.834Z,123.75
2018-05-12T08:38:09.834Z,123.75
2018-05-12T08:39:09.828Z,123.75
2018-05-12T08:40:09.826Z,123.75
2018-05-12T08:41:09.824Z,123.75
2018-05-12T08:42:09.824Z,123.75
2018-05-12T08:43:09.824Z,123.75
2018-05-12T08:44:09.821Z,123.75
2018-05-12T08:45:09.823Z,123.75
2018-05-12T08:46:09.819Z,123.75
2018-05-12T08:47:09.817Z,118.13
2018-05-12T08:48:09.819Z,118.13
2018-05-12T08:49:09.818Z,118.13
2018-05-12T08:50:09.815Z,118.13
2018-05-12T08:51:09.816Z,118.13
2018-05-12T08:52:09.823Z,118.13
2018-05-12T08:53:09.891Z,118.13
2018-05-12T08:54:09.814Z,123.75
2018-05-12T08:55:09.809Z,118.13
2018-05-12T08:56:09.810Z,118.13
2018-05-12T08:57:09.808Z,118.13
2018-05-12T08:58:09.808Z,118.13
2018-05-12T08:59:09.809Z,118.13
2018-05-12T09:00:09.802Z,118.13
2018-05-12T09:01:09.804Z,118.13
2018-05-12T09:02:09.802Z,118.13
2018-05-12T09:03:09.801Z,118.13
2018-05-12T09:04:09.802Z,118.13
2018-05-12T09:05:09.798Z,118.13
2018-05-12T09:06:09.798Z,118.13
2018-05-12T09:07:09.834Z,118.13
2018-05-12T09:08:09.798Z,118.13
2018-05-12T09:09:09.795Z,118.13
2018-05-12T09:10:09.799Z,118.13
2018-05-12T09:11:09.808Z,118.13
2018-05-12T09:12:09.793Z,112.50
2018-05-12T09:13:09.791Z,112.50
2018-05-12T09:14:09.794Z,118.13
2018-05-12T09:15:09.790Z,118.13
2018-05-12T09:16:09.789Z,112.50
2018-05-12T09:17:09.789Z,112.50
2018-05-12T09:18:09.787Z,112.50
2018-05-12T09:19:09.790Z,112.50
2018-05-12T09:20:09.781Z,112.50
2018-05-12T09:21:09.782Z,112.50
2018-05-12T09:22:09.784Z,112.50
2018-05-12T09:23:09.782Z,112.50
2018-05-12T09:24:09.780Z,112.50
2018-05-12T09:25:09.778Z,112.50
2018-05-12T09:26:09.778Z,112.50
2018-05-12T09:27:09.983Z,112.50
2018-05-12T09:28:09.775Z,112.50
2018-05-12T09:29:09.780Z,112.50
2018-05-12T09:30:09.772Z,112.50
2018-05-12T09:31:09.772Z,112.50
2018-05-12T09:32:09.768Z,112.50
2018-05-12T09:33:09.768Z,112.50
2018-05-12T09:34:09.769Z,112.50
2018-05-12T09:35:09.766Z,112.50
2018-05-12T09:36:09.764Z,112.50
2018-05-12T09:37:09.804Z,112.50
2018-05-12T09:38:09.766Z,112.50
2018-05-12T09:39:09.763Z,112.50
2018-05-12T09:40:09.763Z,112.50
2018-05-12T09:41:09.759Z,118.13
2018-05-12T09:42:09.760Z,112.50
2018-05-12T09:43:09.758Z,112.50
2018-05-12T09:44:09.789Z,112.50
2018-05-12T09:45:09.754Z,112.50
2018-05-12T09:46:09.753Z,112.50
2018-05-12T09:47:09.757Z,112.50
2018-05-12T09:48:09.753Z,112.50
2018-05-12T09:49:09.747Z,112.50
2018-05-12T09:50:09.746Z,112.50
2018-05-12T09:51:09.748Z,112.50
2018-05-12T09:52:09.744Z,112.50
2018-05-12T09:53:09.746Z,112.50
2018-05-12T09:54:09.745Z,112.50
2018-05-12T09:55:09.742Z,112.50
2018-05-12T09:56:09.746Z,112.50
2018-05-12T09:57:09.744Z,112.50
2018-05-12T09:58:09.747Z,106.88
2018-05-12T09:59:09.742Z,90.00
2018-05-12T10:00:09.741Z,101.25
2018-05-12T10:01:09.738Z,112.50
2018-05-12T10:02:09.740Z,112.50
2018-05-12T10:03:09.741Z,112.50
2018-05-12T10:04:09.743Z,112.50
2018-05-12T10:05:09.738Z,112.50
2018-05-12T10:06:09.732Z,112.50
2018-05-12T10:07:09.739Z,112.50
2018-05-12T10:08:09.735Z,112.50
2018-05-12T10:09:09.731Z,112.50
2018-05-12T10:10:09.729Z,112.50
2018-05-12T10:11:09.729Z,112.50
2018-05-12T10:12:09.730Z,112.50
2018-05-12T10:13:09.732Z,112.50
2018-05-12T10:14:09.728Z,112.50
2018-05-12T10:15:09.726Z,112.50
2018-05-12T10:16:09.724Z,112.50
2018-05-12T10:17:09.726Z,112.50
2018-05-12T10:18:09.725Z,112.50
2018-05-12T10:19:09.726Z,112.50
2018-05-12T10:20:09.726Z,112.50
2018-05-12T10:21:09.724Z,112.50
2018-05-12T10:22:09.726Z,118.13
2018-05-12T10:23:09.724Z,112.50
2018-05-12T10:24:09.717Z,112.50
2018-05-12T10:25:09.722Z,112.50
2018-05-12T10:26:09.798Z,112.50
2018-05-12T10:27:09.719Z,112.50
2018-05-12T10:28:09.717Z,112.50
2018-05-12T10:29:09.728Z,112.50
2018-05-12T10:30:09.715Z,112.50
2018-05-12T10:31:09.715Z,112.50
2018-05-12T10:32:09.714Z,118.13
2018-05-12T10:33:09.711Z,118.13
2018-05-12T10:34:09.716Z,118.13
2018-05-12T10:35:09.714Z,118.13
2018-05-12T10:36:09.713Z,118.13
2018-05-12T10:37:09.712Z,112.50
2018-05-12T10:38:09.711Z,112.50
2018-05-12T10:39:09.711Z,112.50
2018-05-12T10:40:09.710Z,112.50
2018-05-12T10:41:09.710Z,112.50
2018-05-12T10:42:09.713Z,112.50
2018-05-12T10:43:09.708Z,118.13
2018-05-12T10:44:09.709Z,118.13
2018-05-12T10:45:09.705Z,118.13
2018-05-12T10:46:09.709Z,118.13
2018-05-12T10:47:09.712Z,118.13
2018-05-12T10:48:09.703Z,118.13
2018-05-12T10:49:09.705Z,112.50
2018-05-12T10:50:09.707Z,106.88
2018-05-12T10:51:09.704Z,106.88
2018-05-12T10:52:09.729Z,106.88
2018-05-12T10:53:09.708Z,78.75
2018-05-12T10:54:09.702Z,90.00
2018-05-12T10:55:09.703Z,106.88
2018-05-12T10:56:09.702Z,106.88
2018-05-12T10:57:09.700Z,84.38
2018-05-12T10:58:09.699Z,90.00
2018-05-12T10:59:09.699Z,112.50
2018-05-12T11:00:09.698Z,112.50
2018-05-12T11:01:09.702Z,118.13
2018-05-12T11:02:09.705Z,118.13
2018-05-12T11:03:09.702Z,90.00
2018-05-12T11:04:09.697Z,112.50
2018-05-12T11:05:09.698Z,112.50
2018-05-12T11:06:09.701Z,106.88
2018-05-12T11:07:09.701Z,112.50
2018-05-12T11:08:09.695Z,112.50
2018-05-12T11:09:09.694Z,118.13
2018-05-12T11:10:09.693Z,118.13
2018-05-12T11:11:09.692Z,118.13
2018-05-12T11:12:09.693Z,118.13
2018-05-12T11:13:09.696Z,118.13
2018-05-12T11:14:09.734Z,112.50
2018-05-12T11:15:09.698Z,112.50
2018-05-12T11:16:09.779Z,118.13
2018-05-12T11:17:09.691Z,118.13
2018-05-12T11:18:09.692Z,112.50
2018-05-12T11:19:09.694Z,106.88
2018-05-12T11:20:09.726Z,84.38
2018-05-12T11:21:09.685Z,90.00
2018-05-12T11:22:09.687Z,112.50
2018-05-12T11:23:09.686Z,106.88
2018-05-12T11:24:09.686Z,101.25
2018-05-12T11:25:09.686Z,106.88
2018-05-12T11:26:09.687Z,106.88
2018-05-12T11:27:09.685Z,106.88
2018-05-12T11:28:09.685Z,106.88
2018-05-12T11:29:09.686Z,112.50
2018-05-12T11:30:09.683Z,106.88
2018-05-12T11:31:09.682Z,112.50
2018-05-12T11:32:09.771Z,112.50
2018-05-12T11:33:09.679Z,112.50
2018-05-12T11:34:09.680Z,106.88
2018-05-12T11:35:09.683Z,106.88
2018-05-12T11:36:09.678Z,106.88
2018-05-12T11:37:09.682Z,112.50
2018-05-12T11:38:09.680Z,112.50
2018-05-12T11:39:09.680Z,106.88
2018-05-12T11:40:09.680Z,106.88
2018-05-12T11:41:09.675Z,112.50
2018-05-12T11:42:09.683Z,118.13
2018-05-12T11:43:09.680Z,118.13
2018-05-12T11:44:09.679Z,112.50
2018-05-12T11:45:09.679Z,112.50
2018-05-12T11:46:09.674Z,118.13
2018-05-12T11:47:09.682Z,118.13
2018-05-12T11:48:09.681Z,118.13
2018-05-12T11:49:09.676Z,123.75
2018-05-12T11:50:09.682Z,118.13
2018-05-12T11:51:09.673Z,118.13
2018-05-12T11:52:09.674Z,118.13
2018-05-12T11:53:09.675Z,118.13
2018-05-12T11:54:09.778Z,123.75
2018-05-12T11:55:09.673Z,118.13
2018-05-12T11:56:09.688Z,118.13
2018-05-12T11:57:09.675Z,118.13
2018-05-12T11:58:09.672Z,118.13
2018-05-12T11:59:09.673Z,118.13
2018-05-12T12:00:09.669Z,118.13
2018-05-12T12:01:09.673Z,118.13
2018-05-12T12:02:09.672Z,118.13
2018-05-12T12:03:09.669Z,118.13
2018-05-12T12:04:09.672Z,118.13
2018-05-12T12:05:09.671Z,118.13
2018-05-12T12:06:09.677Z,118.13
2018-05-12T12:07:09.676Z,118.13
2018-05-12T12:08:09.671Z,112.50
2018-05-12T12:09:09.670Z,112.50
2018-05-12T12:10:09.673Z,118.13
2018-05-12T12:11:09.671Z,112.50
2018-05-12T12:12:09.671Z,118.13
2018-05-12T12:13:09.670Z,118.13
2018-05-12T12:14:09.671Z,118.13
2018-05-12T12:15:09.669Z,118.13
2018-05-12T12:16:09.668Z,118.13
2018-05-12T12:17:09.669Z,118.13
2018-05-12T12:18:09.671Z,118.13
2018-05-12T12:19:09.671Z,118.13
2018-05-12T12:20:09.667Z,118.13
2018-05-12T12:21:09.668Z,118.13
2018-05-12T12:22:09.667Z,118.13
2018-05-12T12:23:09.674Z,118.13
2018-05-12T12:24:09.668Z,118.13
2018-05-12T12:25:09.667Z,118.13
2018-05-12T12:26:09.670Z,118.13
2018-05-12T12:27:09.671Z,118.13
2018-05-12T12:53:58.161Z,123.75
2018-05-12T12:54:58.071Z,129.38
2018-05-12T12:55:58.068Z,129.38
2018-05-12T12:56:58.069Z,129.38
2018-05-12T12:57:58.073Z,123.75
2018-05-12T12:58:58.067Z,129.38
2018-05-12T12:59:58.070Z,135.00
2018-05-12T13:00:58.075Z,135.00
2018-05-12T13:01:58.070Z,135.00
2018-05-12T13:02:58.089Z,135.00
2018-05-12T13:03:58.078Z,135.00
2018-05-12T13:04:58.072Z,135.00
2018-05-12T13:05:58.087Z,135.00
2018-05-12T13:06:58.072Z,135.00
2018-05-12T13:07:58.073Z,135.00
2018-05-12T13:08:58.074Z,135.00
2018-05-12T13:09:58.077Z,135.00
2018-05-12T13:10:58.065Z,135.00
2018-05-12T13:11:58.065Z,129.38
2018-05-12T13:12:58.069Z,135.00
2018-05-12T13:13:58.073Z,129.38
2018-05-12T13:14:58.072Z,135.00
2018-05-12T13:15:58.154Z,129.38
2018-05-12T13:16:58.067Z,129.38
2018-05-12T13:17:58.074Z,129.38